עמוד ראשי
METAR-TAF:

METAR-TAF

שדות תעופה :

Rota, ספרד

קו רוחב: 36-39N, קו אורך: 006-21W, גובה: 26מטר

תצפית מזג אוויר נוכחית

הדו"ח נערך לפני 43דקות, בשעה 23:30 UTC
רוח 4קשר מכיוון דרום-מערב, משתנה בין דרום ו מערב
טמפרטורת 21 צלסיוס
לחות 73%
לחץ 1015 hPa
ראות 10 קילומטר או יותר
ללא עננים שבסיסם נמוך מ 5000 רגל או קומולונימבוס

METAR: LERT 152330Z 22004KT 180V270 CAVOK 21/16 Q1015 NOSIG

זמן: 02:13 (00:13 UTC)

תחזית

הדו"ח נערך לפני 4 שעות ו 13דקות, בשעה 20:00 UTC
תחזית בתוקף מ 15 ב 21 UTC עד 16 ב 21 UTC
רוח 9קשר מכיוון מערב/צפון-מערב
ראות 10 קילומטר או יותר
ללא עננים שבסיסם נמוך מ 5000 רגל או קומולונימבוס

TAF: LERT 152000Z 1521/1621 29009KT CAVOK TX25/1614Z TN19/1606Z

תצפיות ותחזיות מזג אוויר לגבי יותר מ- 4,000 שדות תעופה ברחבי העולם. דוחות METAR ו- TAF.

התחנות הזמינות מסומנות בנקודות צהובות ואדומות על גבי המפה.

העבר את העכבר לנקודה הצבעונית על מנת לראות את שם התחנה.

לאחר מכן, לחץ כדי לראות את תוכן ואת תחזיות מזג האוויר.

כדי לשנות את המפה: לחץ על הכפתורים הירוקים עם הפלוס השחור כדי להתקרב; על הכפתור הירוק עם המקף כדי להתרחק; או בחיצים הירוקים למפות סמוכות.


METAR-TAF: